createdAt,value
2022-09-06T00:01:20.025Z,99215.06
2022-09-06T00:03:47.798Z,99222.97
2022-09-06T00:06:18.759Z,99220.31
2022-09-06T00:08:48.168Z,99214.19
2022-09-06T00:11:17.792Z,99226.56
2022-09-06T00:13:47.087Z,99227.38
2022-09-06T00:16:27.236Z,99219.06
2022-09-06T00:18:57.380Z,99223.53
2022-09-06T00:21:28.475Z,99222.69
2022-09-06T00:23:56.203Z,99229.59
2022-09-06T00:26:24.641Z,99224.09
2022-09-06T00:28:52.409Z,99225.13
2022-09-06T00:31:24.242Z,99226.91
2022-09-06T00:33:52.721Z,99217.38
2022-09-06T00:36:23.287Z,99223.88
2022-09-06T00:38:51.048Z,99229.53
2022-09-06T00:41:18.814Z,99228.28
2022-09-06T00:43:46.671Z,99230.72
2022-09-06T00:46:21.297Z,99228.84
2022-09-06T00:48:56.338Z,99221.56
2022-09-06T00:51:27.644Z,99223.56
2022-09-06T00:53:56.335Z,99219.72
2022-09-06T00:56:25.087Z,99227.41
2022-09-06T00:58:52.631Z,99231.44
2022-09-06T01:01:20.382Z,99227.78
2022-09-06T01:03:48.276Z,99221.31
2022-09-06T01:06:25.435Z,99223.47
2022-09-06T01:09:38.492Z,99233.34
2022-09-06T01:12:37.548Z,99229.72
2022-09-06T01:15:26.652Z,99230.72
2022-09-06T01:18:28.403Z,99224.88
2022-09-06T01:21:20.869Z,99226.94
2022-09-06T01:24:32.705Z,99227.16
2022-09-06T01:27:34.036Z,99227.16
2022-09-06T01:30:12.926Z,99229.59
2022-09-06T01:32:55.253Z,99225.78
2022-09-06T01:35:40.960Z,99227.59
2022-09-06T01:38:09.279Z,99232.44
2022-09-06T01:40:37.147Z,99230.81
2022-09-06T01:43:11.173Z,99216.00
2022-09-06T01:46:15.763Z,99221.88
2022-09-06T01:49:12.143Z,99215.84
2022-09-06T01:51:48.454Z,99214.44
2022-09-06T01:54:47.018Z,99212.22
2022-09-06T01:57:55.195Z,99216.69
2022-09-06T02:00:23.768Z,99215.63
2022-09-06T02:03:36.142Z,99210.94
2022-09-06T02:06:20.315Z,99206.44
2022-09-06T02:08:57.711Z,99209.47
2022-09-06T02:11:30.514Z,99213.03
2022-09-06T02:14:08.630Z,99223.53
2022-09-06T02:16:40.519Z,99216.84
2022-09-06T02:19:44.730Z,99212.97
2022-09-06T02:22:18.779Z,99212.63
2022-09-06T02:24:52.510Z,99216.00
2022-09-06T02:27:20.313Z,99213.19
2022-09-06T02:29:48.193Z,99210.56
2022-09-06T02:32:21.886Z,99209.09
2022-09-06T02:34:53.306Z,99208.09
2022-09-06T02:37:24.163Z,99209.31
2022-09-06T02:39:55.319Z,99208.28
2022-09-06T02:42:25.043Z,99209.31
2022-09-06T02:44:52.692Z,99205.41
2022-09-06T02:47:20.183Z,99205.19
2022-09-06T02:49:47.691Z,99207.00
2022-09-06T02:52:15.634Z,99209.03
2022-09-06T02:54:43.266Z,99211.84
2022-09-06T02:57:10.927Z,99205.38
2022-09-06T02:59:38.468Z,99201.69
2022-09-06T03:02:06.119Z,99207.97
2022-09-06T03:04:33.705Z,99209.22
2022-09-06T03:07:01.241Z,99216.72
2022-09-06T03:09:29.280Z,99213.09
2022-09-06T03:11:56.926Z,99212.03
2022-09-06T03:14:24.475Z,99212.00
2022-09-06T03:16:52.135Z,99214.25
2022-09-06T03:19:20.191Z,99209.78
2022-09-06T03:21:47.730Z,99203.06
2022-09-06T03:24:15.226Z,99208.34
2022-09-06T03:26:44.267Z,99208.34
2022-09-06T03:29:11.862Z,99210.00
2022-09-06T03:31:39.418Z,99206.53
2022-09-06T03:34:10.973Z,99210.72
2022-09-06T03:36:38.893Z,99198.59
2022-09-06T03:39:07.146Z,99206.13
2022-09-06T03:41:34.582Z,99202.84
2022-09-06T03:44:02.512Z,99201.09
2022-09-06T03:46:30.830Z,99198.88
2022-09-06T03:48:59.517Z,99204.34
2022-09-06T03:51:27.102Z,99200.44
2022-09-06T03:53:55.619Z,99206.72
2022-09-06T03:56:23.534Z,99201.66
2022-09-06T03:58:51.033Z,99211.38
2022-09-06T04:01:18.855Z,99206.53
2022-09-06T04:03:46.449Z,99204.72
2022-09-06T04:06:14.011Z,99206.34
2022-09-06T04:08:41.545Z,99213.81
2022-09-06T04:11:09.580Z,99211.63
2022-09-06T04:13:37.576Z,99219.69
2022-09-06T04:16:06.123Z,99210.00
2022-09-06T04:18:33.690Z,99208.34
2022-09-06T04:21:01.257Z,99207.53
2022-09-06T04:23:29.993Z,99207.38
2022-09-06T04:25:59.344Z,99208.53
2022-09-06T04:28:27.462Z,99205.72
2022-09-06T04:31:04.225Z,99215.03
2022-09-06T04:33:35.614Z,99213.53
2022-09-06T04:36:07.548Z,99211.91
2022-09-06T04:38:39.513Z,99216.34
2022-09-06T04:41:08.893Z,99221.25
2022-09-06T04:43:36.706Z,99218.19
2022-09-06T04:46:24.090Z,99222.50
2022-09-06T04:48:53.530Z,99219.66
2022-09-06T04:51:22.278Z,99219.47
2022-09-06T04:53:50.419Z,99226.66
2022-09-06T04:56:21.937Z,99218.97
2022-09-06T04:58:52.193Z,99208.25
2022-09-06T05:01:20.645Z,99218.25
2022-09-06T05:03:48.348Z,99219.31
2022-09-06T05:06:24.440Z,99214.25
2022-09-06T05:08:52.726Z,99215.50
2022-09-06T05:11:20.214Z,99217.56
2022-09-06T05:13:48.004Z,99214.63
2022-09-06T05:16:15.742Z,99233.72
2022-09-06T05:18:44.260Z,99228.28
2022-09-06T05:21:11.763Z,99234.25
2022-09-06T05:23:39.434Z,99229.59
2022-09-06T05:26:07.046Z,99237.56
2022-09-06T05:28:34.693Z,99230.44
2022-09-06T05:31:12.426Z,99234.28
2022-09-06T05:33:40.321Z,99237.75
2022-09-06T05:36:08.326Z,99223.31
2022-09-06T05:38:35.861Z,99227.41
2022-09-06T05:41:03.445Z,99227.38
2022-09-06T05:43:31.059Z,99222.84
2022-09-06T05:45:59.655Z,99223.34
2022-09-06T05:48:27.377Z,99215.34
2022-09-06T05:51:12.585Z,99209.81
2022-09-06T05:53:45.159Z,99218.88
2022-09-06T05:56:15.071Z,99215.53
2022-09-06T05:58:43.077Z,99215.22
2022-09-06T06:01:19.765Z,99217.53
2022-09-06T06:03:54.081Z,99207.53
2022-09-06T06:06:24.106Z,99212.63
2022-09-06T06:08:51.818Z,99209.03
2022-09-06T06:11:20.461Z,99209.69
2022-09-06T06:13:48.419Z,99204.34
2022-09-06T06:16:19.088Z,99198.09
2022-09-06T06:18:51.755Z,99203.25
2022-09-06T06:21:26.820Z,99190.66
2022-09-06T06:24:03.447Z,99192.44
2022-09-06T06:26:34.833Z,99191.88
2022-09-06T06:29:02.766Z,99183.28
2022-09-06T06:31:33.007Z,99186.75
2022-09-06T06:34:03.780Z,99185.13
2022-09-06T06:36:34.271Z,99186.66
2022-09-06T06:39:08.459Z,99183.63
2022-09-06T06:41:36.178Z,99184.09
2022-09-06T06:44:06.075Z,99195.78
2022-09-06T06:46:37.103Z,99194.44
2022-09-06T06:49:05.312Z,99194.91
2022-09-06T06:51:37.193Z,99198.06
2022-09-06T06:54:05.978Z,99187.63
2022-09-06T06:56:37.884Z,99190.88
2022-09-06T06:59:07.807Z,99194.75
2022-09-06T07:01:37.065Z,99175.56
2022-09-06T07:04:06.753Z,99183.31
2022-09-06T07:12:31.748Z,99175.41
2022-09-06T07:14:59.343Z,99170.13
2022-09-06T07:17:26.688Z,99171.66
2022-09-06T07:22:42.535Z,99179.69
2022-09-06T07:25:14.493Z,99181.66
2022-09-06T07:30:18.085Z,99182.91
2022-09-06T07:32:45.619Z,99183.53
2022-09-06T07:35:13.946Z,99176.31
2022-09-06T07:37:41.583Z,99187.69
2022-09-06T07:40:10.282Z,99179.06
2022-09-06T07:42:38.089Z,99182.88
2022-09-06T07:45:06.398Z,99178.19
2022-09-06T07:53:15.578Z,99183.78
2022-09-06T07:55:46.973Z,99183.03
2022-09-06T07:58:14.447Z,99184.06
2022-09-06T08:00:42.095Z,99175.25
2022-09-06T08:03:10.235Z,99176.31
2022-09-06T08:11:14.464Z,99163.09
2022-09-06T08:13:42.479Z,99158.63
2022-09-06T08:16:12.469Z,99162.31
2022-09-06T08:18:40.283Z,99162.00
2022-09-06T08:21:12.412Z,99160.13
2022-09-06T08:23:45.519Z,99160.25
2022-09-06T08:26:13.182Z,99157.09
2022-09-06T08:28:40.714Z,99167.16
2022-09-06T08:31:17.385Z,99159.44
2022-09-06T08:33:45.136Z,99156.81
2022-09-06T08:36:14.449Z,99154.16
2022-09-06T08:38:42.223Z,99157.88
2022-09-06T08:42:05.905Z,99161.69
2022-09-06T08:45:00.250Z,99159.34
2022-09-06T08:47:28.174Z,99153.47
2022-09-06T08:50:06.747Z,99156.38
2022-09-06T08:53:17.221Z,99153.34
2022-09-06T08:56:03.146Z,99156.75
2022-09-06T08:58:42.649Z,99145.59
2022-09-06T09:01:19.705Z,99144.59
2022-09-06T09:03:47.355Z,99150.69
2022-09-06T09:06:14.918Z,99143.19
2022-09-06T09:09:05.921Z,99133.63
2022-09-06T09:11:36.109Z,99134.50
2022-09-06T09:14:18.758Z,99132.81
2022-09-06T09:16:52.651Z,99121.41
2022-09-06T09:19:20.275Z,99128.25
2022-09-06T09:21:48.321Z,99117.19
2022-09-06T09:24:16.256Z,99120.34
2022-09-06T09:27:11.147Z,99117.72
2022-09-06T09:32:47.580Z,99105.66
2022-09-06T09:35:42.208Z,99116.00
2022-09-06T09:38:19.315Z,99106.09
2022-09-06T09:41:03.335Z,99102.25
2022-09-06T09:43:39.803Z,99098.31
2022-09-06T09:46:22.593Z,99100.44
2022-09-06T09:49:13.174Z,99103.31
2022-09-06T09:51:47.929Z,99086.53
2022-09-06T09:54:32.303Z,99095.63
2022-09-06T09:56:59.965Z,99104.66
2022-09-06T09:59:34.743Z,99092.38
2022-09-06T10:02:18.816Z,99087.72
2022-09-06T10:04:51.653Z,99088.00
2022-09-06T10:07:24.494Z,99080.53
2022-09-06T10:10:12.864Z,99078.09
2022-09-06T10:12:42.891Z,99084.41
2022-09-06T10:15:32.905Z,99069.91
2022-09-06T10:18:00.581Z,99067.34
2022-09-06T10:20:46.504Z,99064.69
2022-09-06T10:26:56.737Z,99067.38
2022-09-06T10:29:55.349Z,99050.81
2022-09-06T10:32:40.647Z,99050.56
2022-09-06T10:35:25.800Z,99048.66
2022-09-06T10:38:14.320Z,99046.88
2022-09-06T10:41:20.679Z,99045.03
2022-09-06T10:44:17.091Z,99049.72
2022-09-06T10:46:46.422Z,99049.91
2022-09-06T10:49:19.235Z,99045.22
2022-09-06T10:51:54.489Z,99042.63
2022-09-06T10:54:24.235Z,99039.91
2022-09-06T10:57:02.208Z,99040.44
2022-09-06T10:59:52.162Z,99047.84
2022-09-06T11:02:45.000Z,99047.06
2022-09-06T11:05:38.306Z,99040.97
2022-09-06T11:11:23.146Z,99044.19
2022-09-06T11:13:50.879Z,99040.53
2022-09-06T11:16:39.936Z,99034.78
2022-09-06T11:19:26.726Z,99036.84
2022-09-06T11:22:26.251Z,99023.50
2022-09-06T11:25:27.581Z,99035.53
2022-09-06T11:27:59.388Z,99023.91
2022-09-06T11:30:29.858Z,99032.16
2022-09-06T11:33:28.378Z,99025.72
2022-09-06T11:36:33.078Z,99016.50
2022-09-06T11:39:04.599Z,99024.00
2022-09-06T11:41:37.914Z,99014.38
2022-09-06T11:44:07.125Z,99004.97
2022-09-06T11:46:34.572Z,98992.34
2022-09-06T11:49:34.379Z,98988.72
2022-09-06T11:52:02.302Z,98993.88
2022-09-06T11:54:46.739Z,98994.53
2022-09-06T11:57:21.264Z,98991.94
2022-09-06T12:00:04.350Z,98983.69
2022-09-06T12:02:41.594Z,98978.94
2022-09-06T12:05:14.293Z,98975.38
2022-09-06T12:08:21.519Z,98975.78
2022-09-06T12:11:01.966Z,98972.63
2022-09-06T12:13:54.466Z,98970.34
2022-09-06T12:16:24.104Z,98956.28
2022-09-06T12:18:51.677Z,98964.13
2022-09-06T12:21:47.523Z,98955.25
2022-09-06T12:24:38.799Z,98945.47
2022-09-06T12:27:26.944Z,98947.19
2022-09-06T12:29:59.851Z,98947.53
2022-09-06T12:32:40.007Z,98941.72
2022-09-06T12:38:25.773Z,98950.66
2022-09-06T12:40:58.450Z,98936.03
2022-09-06T12:43:27.145Z,98933.28
2022-09-06T12:45:54.675Z,98934.38
2022-09-06T12:48:32.200Z,98933.22
2022-09-06T12:51:16.263Z,98931.06
2022-09-06T12:53:55.593Z,98927.97
2022-09-06T12:56:26.731Z,98918.56
2022-09-06T12:59:19.384Z,98926.38
2022-09-06T13:01:50.556Z,98922.38
2022-09-06T13:04:39.827Z,98918.25
2022-09-06T13:07:14.407Z,98907.03
2022-09-06T13:09:49.520Z,98937.03
2022-09-06T13:12:32.835Z,98925.16
2022-09-06T13:15:29.351Z,98927.38
2022-09-06T13:18:23.836Z,98920.13
2022-09-06T13:21:14.203Z,98910.09
2022-09-06T13:23:48.397Z,98910.41
2022-09-06T13:26:32.589Z,98913.59
2022-09-06T13:29:18.687Z,98912.38
2022-09-06T13:31:48.447Z,98915.88
2022-09-06T13:34:24.398Z,98915.69
2022-09-06T13:36:55.964Z,98912.41
2022-09-06T13:39:39.200Z,98911.69
2022-09-06T13:42:10.886Z,98911.28
2022-09-06T13:44:39.871Z,98911.03
2022-09-06T13:47:07.417Z,98900.03
2022-09-06T13:49:34.798Z,98903.50
2022-09-06T13:52:04.630Z,98889.78
2022-09-06T13:54:33.637Z,98893.88
2022-09-06T13:57:04.600Z,98887.16
2022-09-06T13:59:32.072Z,98892.50
2022-09-06T14:02:10.138Z,98893.09
2022-09-06T14:04:38.779Z,98888.34
2022-09-06T14:07:06.311Z,98889.56
2022-09-06T14:09:34.066Z,98890.63
2022-09-06T14:12:02.251Z,98891.16
2022-09-06T14:14:29.809Z,98888.59
2022-09-06T14:16:57.220Z,98883.75
2022-09-06T14:19:24.689Z,98876.72
2022-09-06T14:21:52.618Z,98870.53
2022-09-06T14:24:20.182Z,98875.09
2022-09-06T14:26:47.766Z,98877.63
2022-09-06T14:29:15.122Z,98875.22
2022-09-06T14:31:42.381Z,98870.72
2022-09-06T14:34:09.683Z,98865.50
2022-09-06T14:36:36.917Z,98861.53
2022-09-06T14:39:04.313Z,98865.53
2022-09-06T14:41:32.359Z,98865.25
2022-09-06T14:44:00.148Z,98863.00
2022-09-06T14:46:29.696Z,98857.56
2022-09-06T14:49:06.130Z,98862.69
2022-09-06T14:51:35.835Z,98854.09
2022-09-06T14:54:10.809Z,98865.09
2022-09-06T14:56:41.977Z,98857.63
2022-09-06T14:59:10.565Z,98850.63
2022-09-06T15:01:39.596Z,98850.09
2022-09-06T15:04:10.774Z,98860.53
2022-09-06T15:06:41.095Z,98859.25
2022-09-06T15:09:11.357Z,98855.44
2022-09-06T15:11:50.575Z,98848.00
2022-09-06T15:14:29.269Z,98844.84
2022-09-06T15:17:00.001Z,98850.75
2022-09-06T15:19:29.734Z,98847.75
2022-09-06T15:21:57.727Z,98845.34
2022-09-06T15:24:26.011Z,98842.19
2022-09-06T15:26:53.659Z,98844.59
2022-09-06T15:29:21.242Z,98853.41
2022-09-06T15:31:52.897Z,98849.66
2022-09-06T15:34:23.339Z,98846.16
2022-09-06T15:36:52.950Z,98844.06
2022-09-06T15:39:20.707Z,98845.13
2022-09-06T15:41:51.475Z,98847.00
2022-09-06T15:44:21.567Z,98845.13
2022-09-06T15:46:56.811Z,98843.81
2022-09-06T15:49:33.770Z,98847.00
2022-09-06T15:52:05.938Z,98847.00
2022-09-06T15:54:52.019Z,98845.38
2022-09-06T15:57:19.516Z,98850.72
2022-09-06T15:59:47.051Z,98842.16
2022-09-06T16:02:14.943Z,98841.09
2022-09-06T16:04:42.633Z,98846.94
2022-09-06T16:07:10.123Z,98838.09
2022-09-06T16:09:37.870Z,98848.50
2022-09-06T16:12:06.393Z,98847.44
2022-09-06T16:14:34.842Z,98849.03
2022-09-06T16:17:02.392Z,98842.06
2022-09-06T16:19:29.999Z,98835.63
2022-09-06T16:21:58.966Z,98839.03
2022-09-06T16:24:26.969Z,98846.22
2022-09-06T16:26:54.563Z,98840.59
2022-09-06T16:29:22.165Z,98839.19
2022-09-06T16:31:50.590Z,98842.38
2022-09-06T16:34:18.161Z,98838.88
2022-09-06T16:36:45.822Z,98839.63
2022-09-06T16:39:13.182Z,98837.16
2022-09-06T16:41:44.267Z,98838.47
2022-09-06T16:44:18.089Z,98832.28
2022-09-06T16:46:48.801Z,98837.81
2022-09-06T16:49:19.079Z,98829.72
2022-09-06T16:51:49.516Z,98830.75
2022-09-06T16:54:18.180Z,98835.47
2022-09-06T16:56:45.897Z,98830.59
2022-09-06T16:59:15.283Z,98832.63
2022-09-06T17:01:44.241Z,98826.91
2022-09-06T17:04:13.013Z,98828.16
2022-09-06T17:06:44.666Z,98839.81
2022-09-06T17:09:19.406Z,98840.25
2022-09-06T17:11:49.939Z,98838.06
2022-09-06T17:14:18.225Z,98849.47
2022-09-06T17:17:04.533Z,98852.03
2022-09-06T17:19:41.711Z,98849.06
2022-09-06T17:22:12.601Z,98851.16
2022-09-06T17:24:41.593Z,98856.69
2022-09-06T17:27:10.081Z,98864.88
2022-09-06T17:29:39.930Z,98862.41
2022-09-06T17:32:10.319Z,98855.59
2022-09-06T17:34:40.343Z,98856.78
2022-09-06T17:37:08.759Z,98862.91
2022-09-06T17:39:37.277Z,98863.59
2022-09-06T17:42:05.458Z,98867.78
2022-09-06T17:44:33.225Z,98865.34
2022-09-06T17:47:12.590Z,98859.22
2022-09-06T17:49:41.409Z,98865.66
2022-09-06T17:52:09.750Z,98862.56
2022-09-06T17:54:37.767Z,98875.44
2022-09-06T17:57:05.549Z,98875.56
2022-09-06T17:59:35.825Z,98871.84
2022-09-06T18:02:05.192Z,98883.63
2022-09-06T18:04:33.240Z,98892.28
2022-09-06T18:07:00.919Z,98897.19
2022-09-06T18:09:28.549Z,98897.66
2022-09-06T18:11:56.978Z,98896.59
2022-09-06T18:14:24.723Z,98902.75
2022-09-06T18:16:52.525Z,98904.97
2022-09-06T18:19:21.021Z,98906.34
2022-09-06T18:21:48.994Z,98918.59
2022-09-06T18:24:17.348Z,98913.16
2022-09-06T18:26:45.046Z,98914.78
2022-09-06T18:29:15.203Z,98916.19
2022-09-06T18:31:43.739Z,98916.19
2022-09-06T18:34:12.671Z,98920.31
2022-09-06T18:36:40.935Z,98928.03
2022-09-06T18:39:08.799Z,98917.31
2022-09-06T18:41:54.915Z,98921.13
2022-09-06T18:44:23.172Z,98923.53
2022-09-06T18:46:55.906Z,98929.66
2022-09-06T18:49:24.456Z,98927.47
2022-09-06T18:51:52.287Z,98918.78
2022-09-06T18:54:20.890Z,98924.31
2022-09-06T18:56:50.210Z,98919.38
2022-09-06T18:59:18.908Z,98916.75
2022-09-06T19:01:46.870Z,98917.97
2022-09-06T19:04:15.083Z,98919.50
2022-09-06T19:06:44.886Z,98913.22
2022-09-06T19:09:16.664Z,98922.09
2022-09-06T19:11:47.213Z,98915.88
2022-09-06T19:14:15.356Z,98920.66
2022-09-06T19:16:45.448Z,98915.72
2022-09-06T19:19:13.651Z,98916.59
2022-09-06T19:21:42.538Z,98916.56
2022-09-06T19:24:12.305Z,98925.31
2022-09-06T19:26:44.300Z,98921.94
2022-09-06T19:29:16.143Z,98913.63
2022-09-06T19:31:45.553Z,98916.28
2022-09-06T19:34:15.674Z,98926.06
2022-09-06T19:36:44.947Z,98914.34
2022-09-06T19:39:16.751Z,98911.88
2022-09-06T19:41:46.940Z,98911.31
2022-09-06T19:44:16.835Z,98917.66
2022-09-06T19:46:46.825Z,98913.59
2022-09-06T19:49:17.208Z,98914.06
2022-09-06T19:51:46.722Z,98918.31
2022-09-06T19:54:16.168Z,98910.59
2022-09-06T19:56:44.757Z,98905.97
2022-09-06T19:59:14.444Z,98913.34
2022-09-06T20:01:44.377Z,98904.56
2022-09-06T20:04:13.875Z,98901.09
2022-09-06T20:06:41.445Z,98897.28
2022-09-06T20:09:10.867Z,98910.16
2022-09-06T20:11:40.815Z,98906.31
2022-09-06T20:14:10.451Z,98905.97
2022-09-06T20:16:41.760Z,98913.53
2022-09-06T20:19:14.142Z,98907.53
2022-09-06T20:21:43.433Z,98905.88
2022-09-06T20:24:11.100Z,98914.06
2022-09-06T20:26:38.804Z,98908.69
2022-09-06T20:29:07.290Z,98905.66
2022-09-06T20:31:37.120Z,98899.66
2022-09-06T20:34:06.691Z,98904.22
2022-09-06T20:36:34.504Z,98905.09
2022-09-06T20:39:02.666Z,98901.75
2022-09-06T20:41:30.990Z,98905.22
2022-09-06T20:44:00.034Z,98904.56
2022-09-06T20:46:32.206Z,98902.13
2022-09-06T20:49:03.842Z,98894.06
2022-09-06T20:51:34.180Z,98898.09
2022-09-06T20:54:04.693Z,98893.25
2022-09-06T20:56:39.281Z,98898.97
2022-09-06T20:59:12.951Z,98893.72
2022-09-06T21:01:44.984Z,98898.09
2022-09-06T21:04:16.010Z,98899.38
2022-09-06T21:06:45.852Z,98899.28
2022-09-06T21:09:15.029Z,98897.50
2022-09-06T21:11:43.374Z,98893.97
2022-09-06T21:14:11.522Z,98889.31
2022-09-06T21:16:40.582Z,98884.25
2022-09-06T21:19:10.427Z,98884.31
2022-09-06T21:21:39.814Z,98888.13
2022-09-06T21:24:09.779Z,98877.56
2022-09-06T21:26:38.071Z,98873.91
2022-09-06T21:29:05.644Z,98874.97
2022-09-06T21:31:36.288Z,98872.94
2022-09-06T21:34:15.740Z,98877.44
2022-09-06T21:36:44.857Z,98878.69
2022-09-06T21:39:12.987Z,98873.28
2022-09-06T21:41:42.280Z,98880.19
2022-09-06T21:44:10.731Z,98878.97
2022-09-06T21:46:40.361Z,98883.28
2022-09-06T21:49:13.128Z,98879.31
2022-09-06T21:51:41.827Z,98881.84
2022-09-06T21:54:09.947Z,98885.94
2022-09-06T21:56:38.618Z,98878.25
2022-09-06T21:59:07.163Z,98882.91
2022-09-06T22:01:38.302Z,98870.16
2022-09-06T22:04:06.877Z,98869.97
2022-09-06T22:06:36.282Z,98856.97
2022-09-06T22:09:10.897Z,98864.88
2022-09-06T22:11:41.474Z,98869.72
2022-09-06T22:14:12.705Z,98866.50
2022-09-06T22:16:40.974Z,98868.97
2022-09-06T22:19:10.664Z,98869.19
2022-09-06T22:21:39.322Z,98872.19
2022-09-06T22:24:10.109Z,98862.44
2022-09-06T22:26:40.925Z,98862.81
2022-09-06T22:29:11.530Z,98855.69
2022-09-06T22:31:40.249Z,98859.53
2022-09-06T22:34:08.446Z,98862.19
2022-09-06T22:36:35.953Z,98863.78
2022-09-06T22:39:03.589Z,98868.03
2022-09-06T22:41:33.931Z,98868.41
2022-09-06T22:44:02.548Z,98864.16
2022-09-06T22:46:30.972Z,98867.00
2022-09-06T22:48:59.582Z,98868.03
2022-09-06T22:51:27.302Z,98865.97
2022-09-06T22:53:54.859Z,98862.28
2022-09-06T22:56:22.350Z,98860.88
2022-09-06T22:58:50.181Z,98860.13
2022-09-06T23:01:18.033Z,98852.88
2022-09-06T23:03:48.004Z,98854.78
2022-09-06T23:06:15.694Z,98856.22
2022-09-06T23:08:43.581Z,98853.00
2022-09-06T23:11:14.869Z,98852.00
2022-09-06T23:13:43.987Z,98853.63
2022-09-06T23:16:18.846Z,98855.63
2022-09-06T23:18:47.745Z,98851.78
2022-09-06T23:21:22.239Z,98853.63
2022-09-06T23:23:52.689Z,98859.31
2022-09-06T23:26:24.614Z,98867.03
2022-09-06T23:28:56.804Z,98866.25
2022-09-06T23:31:28.269Z,98871.34
2022-09-06T23:33:58.287Z,98871.13
2022-09-06T23:36:26.597Z,98861.81
2022-09-06T23:38:54.152Z,98869.91
2022-09-06T23:41:21.876Z,98863.44
2022-09-06T23:43:49.557Z,98865.88
2022-09-06T23:46:17.667Z,98864.25
2022-09-06T23:48:45.336Z,98871.34
2022-09-06T23:51:13.514Z,98859.78
2022-09-06T23:53:41.218Z,98853.50
2022-09-06T23:56:09.128Z,98856.53
2022-09-06T23:58:37.805Z,98853.69
